createdAt,value
2019-02-24T00:00:11.343Z,69.24
2019-02-24T00:01:11.334Z,69.06
2019-02-24T00:02:11.337Z,68.02
2019-02-24T00:03:11.370Z,68.96
2019-02-24T00:04:11.299Z,69.03
2019-02-24T00:05:11.335Z,68.65
2019-02-24T00:06:11.279Z,68.44
2019-02-24T00:07:11.273Z,69.06
2019-02-24T00:08:11.256Z,68.65
2019-02-24T00:09:11.246Z,69.03
2019-02-24T00:10:11.235Z,68.93
2019-02-24T00:11:11.255Z,69.13
2019-02-24T00:12:11.251Z,68.85
2019-02-24T00:13:11.202Z,68.93
2019-02-24T00:14:11.194Z,69.24
2019-02-24T00:15:11.182Z,69.37
2019-02-24T00:16:11.206Z,69.24
2019-02-24T00:17:11.163Z,68.75
2019-02-24T00:18:11.146Z,68.02
2019-02-24T00:19:11.137Z,68.96
2019-02-24T00:20:11.130Z,68.96
2019-02-24T00:21:11.148Z,69.48
2019-02-24T00:22:11.103Z,69.61
2019-02-24T00:23:11.096Z,68.99
2019-02-24T00:24:11.083Z,69.20
2019-02-24T00:25:11.075Z,69.30
2019-02-24T00:26:11.061Z,69.51
2019-02-24T00:27:11.080Z,69.20
2019-02-24T00:28:11.041Z,69.20
2019-02-24T00:29:11.027Z,69.92
2019-02-24T00:30:11.050Z,69.64
2019-02-24T00:31:11.013Z,70.23
2019-02-24T00:32:10.994Z,70.79
2019-02-24T00:33:11.023Z,70.34
2019-02-24T00:34:11.001Z,70.65
2019-02-24T00:35:10.992Z,70.54
2019-02-24T00:36:10.951Z,69.30
2019-02-24T00:37:10.941Z,69.71
2019-02-24T00:38:10.933Z,69.82
2019-02-24T00:39:10.918Z,69.30
2019-02-24T00:40:10.940Z,68.99
2019-02-24T00:41:10.899Z,70.03
2019-02-24T00:42:10.887Z,70.34
2019-02-24T00:43:10.877Z,70.13
2019-02-24T00:44:10.893Z,70.86
2019-02-24T00:45:10.851Z,70.34
2019-02-24T00:46:10.878Z,69.71
2019-02-24T00:47:10.830Z,69.17
2019-02-24T00:48:10.827Z,70.13
2019-02-24T00:49:10.808Z,69.06
2019-02-24T00:50:10.798Z,68.96
2019-02-24T00:51:10.788Z,68.99
2019-02-24T00:52:10.812Z,68.16
2019-02-24T00:53:10.764Z,68.54
2019-02-24T00:54:10.754Z,68.37
2019-02-24T00:55:10.743Z,69.09
2019-02-24T00:56:10.734Z,68.26
2019-02-24T00:57:10.752Z,67.54
2019-02-24T00:58:16.262Z,67.85
2019-02-24T00:59:11.698Z,67.95
2019-02-24T01:00:10.722Z,68.57
2019-02-24T01:01:10.677Z,67.40
2019-02-24T01:02:10.697Z,66.08
2019-02-24T01:03:10.655Z,66.18
2019-02-24T01:04:10.682Z,65.45
2019-02-24T01:05:10.653Z,65.53
2019-02-24T01:06:10.625Z,66.15
2019-02-24T01:07:10.614Z,66.15
2019-02-24T01:08:10.603Z,64.59
2019-02-24T01:09:10.620Z,63.21
2019-02-24T01:10:10.580Z,62.90
2019-02-24T01:11:10.578Z,61.24
2019-02-24T01:12:10.559Z,61.17
2019-02-24T01:13:10.553Z,61.24
2019-02-24T01:14:10.565Z,61.55
2019-02-24T01:15:10.557Z,61.97
2019-02-24T01:16:10.520Z,60.93
2019-02-24T01:17:10.504Z,60.80
2019-02-24T01:18:10.495Z,60.39
2019-02-24T01:19:10.512Z,60.60
2019-02-24T01:20:10.470Z,60.39
2019-02-24T01:21:10.464Z,60.91
2019-02-24T01:22:10.483Z,61.04
2019-02-24T01:23:10.444Z,61.24
2019-02-24T01:24:10.430Z,63.21
2019-02-24T01:25:10.426Z,61.76
2019-02-24T01:26:10.444Z,62.18
2019-02-24T01:27:10.425Z,62.28
2019-02-24T01:28:10.405Z,62.38
2019-02-24T01:29:10.373Z,62.59
2019-02-24T01:30:10.366Z,63.94
2019-02-24T01:31:10.383Z,63.94
2019-02-24T01:32:10.341Z,63.01
2019-02-24T01:33:10.330Z,62.59
2019-02-24T01:34:10.321Z,62.93
2019-02-24T01:35:10.307Z,62.90
2019-02-24T01:36:10.297Z,64.39
2019-02-24T01:37:10.326Z,64.28
2019-02-24T01:38:10.280Z,64.07
2019-02-24T01:39:10.265Z,64.39
2019-02-24T01:40:10.257Z,63.94
2019-02-24T01:41:10.242Z,63.97
2019-02-24T01:42:10.230Z,64.36
2019-02-24T01:43:10.254Z,63.94
2019-02-24T01:44:10.239Z,64.39
2019-02-24T01:45:10.210Z,64.67
2019-02-24T01:46:10.188Z,64.70
2019-02-24T01:47:10.177Z,65.22
2019-02-24T01:48:10.167Z,65.32
2019-02-24T01:49:10.188Z,65.84
2019-02-24T01:50:10.143Z,66.71
2019-02-24T01:51:10.144Z,66.99
2019-02-24T01:52:10.123Z,66.05
2019-02-24T01:53:10.111Z,66.08
2019-02-24T01:54:10.099Z,66.57
2019-02-24T01:55:10.119Z,66.18
2019-02-24T01:56:10.079Z,66.57
2019-02-24T01:57:10.067Z,66.18
2019-02-24T01:58:10.056Z,66.50
2019-02-24T01:59:10.046Z,66.28
2019-02-24T02:00:10.065Z,66.60
2019-02-24T02:01:10.022Z,66.60
2019-02-24T02:02:10.018Z,67.64
2019-02-24T02:03:10.053Z,66.91
2019-02-24T02:04:09.990Z,66.81
2019-02-24T02:05:09.981Z,66.28
2019-02-24T02:06:10.009Z,66.50
2019-02-24T02:07:09.958Z,66.71
2019-02-24T02:08:09.952Z,66.60
2019-02-24T02:09:09.936Z,66.91
2019-02-24T02:10:09.924Z,67.02
2019-02-24T02:11:09.947Z,66.71
2019-02-24T02:12:09.910Z,66.18
2019-02-24T02:13:09.922Z,66.81
2019-02-24T02:14:09.881Z,65.97
2019-02-24T02:15:09.870Z,66.67
2019-02-24T02:16:09.858Z,65.94
2019-02-24T02:17:09.868Z,65.25
2019-02-24T02:18:09.875Z,65.97
2019-02-24T02:19:09.829Z,66.08
2019-02-24T02:20:09.814Z,66.39
2019-02-24T02:21:09.805Z,66.18
2019-02-24T02:22:09.795Z,65.22
2019-02-24T02:23:09.783Z,65.56
2019-02-24T02:24:09.801Z,65.25
2019-02-24T02:25:09.762Z,66.60
2019-02-24T02:26:09.748Z,66.28
2019-02-24T02:27:09.772Z,65.04
2019-02-24T02:28:09.760Z,64.94
2019-02-24T02:29:09.717Z,65.97
2019-02-24T02:30:09.752Z,66.81
2019-02-24T02:31:09.703Z,66.28
2019-02-24T02:32:09.687Z,66.28
2019-02-24T02:33:09.675Z,66.60
2019-02-24T02:34:09.667Z,66.28
2019-02-24T02:35:09.653Z,66.00
2019-02-24T02:36:09.670Z,65.56
2019-02-24T02:37:09.661Z,65.48
2019-02-24T02:38:09.619Z,66.08
2019-02-24T02:39:09.642Z,66.81
2019-02-24T02:40:09.601Z,66.28
2019-02-24T02:41:09.584Z,66.18
2019-02-24T02:42:09.574Z,66.60
2019-02-24T02:43:09.563Z,64.73
2019-02-24T02:44:09.591Z,64.73
2019-02-24T02:45:09.550Z,64.31
2019-02-24T02:46:09.534Z,64.76
2019-02-24T02:47:09.550Z,64.94
2019-02-24T02:48:09.513Z,63.82
2019-02-24T02:49:09.500Z,64.42
2019-02-24T02:50:09.486Z,64.42
2019-02-24T02:51:09.475Z,62.86
2019-02-24T02:52:09.558Z,63.79
2019-02-24T02:53:09.485Z,62.96
2019-02-24T02:54:09.475Z,64.31
2019-02-24T02:55:09.429Z,64.00
2019-02-24T02:56:09.421Z,64.21
2019-02-24T02:57:09.412Z,63.51
2019-02-24T02:58:09.399Z,62.65
2019-02-24T02:59:09.420Z,64.00
2019-02-24T03:00:09.378Z,63.07
2019-02-24T03:01:09.413Z,62.02
2019-02-24T03:02:09.395Z,62.65
2019-02-24T03:03:09.343Z,62.24
2019-02-24T03:04:09.333Z,61.90
2019-02-24T03:05:09.327Z,62.13
2019-02-24T03:06:09.308Z,61.30
2019-02-24T03:07:09.348Z,61.40
2019-02-24T03:08:09.351Z,62.45
2019-02-24T03:09:09.275Z,61.27
2019-02-24T03:10:09.267Z,61.27
2019-02-24T03:11:09.294Z,61.48
2019-02-24T03:12:09.245Z,60.65
2019-02-24T03:13:09.234Z,60.05
2019-02-24T03:14:09.223Z,60.88
2019-02-24T03:15:09.215Z,60.13
2019-02-24T03:16:09.205Z,59.30
2019-02-24T03:17:09.229Z,59.09
2019-02-24T03:18:09.182Z,59.92
2019-02-24T03:19:09.167Z,59.71
2019-02-24T03:20:09.155Z,59.30
2019-02-24T03:21:09.146Z,58.44
2019-02-24T03:22:09.135Z,57.82
2019-02-24T03:23:09.167Z,58.88
2019-02-24T03:24:09.110Z,58.44
2019-02-24T03:25:09.101Z,57.40
2019-02-24T03:26:09.088Z,57.30
2019-02-24T03:27:09.078Z,57.61
2019-02-24T03:28:09.066Z,56.47
2019-02-24T03:29:09.107Z,57.09
2019-02-24T03:30:09.063Z,56.88
2019-02-24T03:31:09.037Z,56.88
2019-02-24T03:32:09.025Z,56.13
2019-02-24T03:33:09.012Z,55.85
2019-02-24T03:34:09.041Z,55.62
2019-02-24T03:35:08.993Z,55.51
2019-02-24T03:36:08.986Z,55.62
2019-02-24T03:37:08.967Z,54.47
2019-02-24T03:38:08.973Z,55.51
2019-02-24T03:39:08.956Z,55.20
2019-02-24T03:40:08.985Z,54.37
2019-02-24T03:41:08.926Z,55.41
2019-02-24T03:42:08.937Z,54.37
2019-02-24T03:43:08.933Z,54.58
2019-02-24T03:44:08.893Z,54.89
2019-02-24T03:45:08.879Z,55.51
2019-02-24T03:46:08.914Z,53.85
2019-02-24T03:47:08.920Z,54.58
2019-02-24T03:48:08.848Z,55.30
2019-02-24T03:49:08.836Z,53.75
2019-02-24T03:50:08.825Z,54.68
2019-02-24T03:51:08.814Z,54.06
2019-02-24T03:52:08.803Z,54.47
2019-02-24T03:53:08.840Z,54.55
2019-02-24T03:54:08.781Z,53.96
2019-02-24T03:55:08.769Z,53.96
2019-02-24T03:56:08.781Z,53.82
2019-02-24T03:57:08.789Z,54.16
2019-02-24T03:58:08.745Z,54.03
2019-02-24T03:59:15.195Z,53.51
2019-02-24T04:00:09.755Z,53.54
2019-02-24T04:01:08.712Z,53.30
2019-02-24T04:02:08.695Z,53.00
2019-02-24T04:03:08.683Z,52.58
2019-02-24T04:04:08.675Z,53.10
2019-02-24T04:05:08.702Z,52.58
2019-02-24T04:06:08.694Z,53.10
2019-02-24T04:07:08.638Z,52.37
2019-02-24T04:08:08.627Z,52.76
2019-02-24T04:09:08.619Z,53.61
2019-02-24T04:10:08.604Z,53.72
2019-02-24T04:11:08.602Z,53.72
2019-02-24T04:12:08.634Z,53.00
2019-02-24T04:13:08.577Z,53.59
2019-02-24T04:14:08.562Z,53.08
2019-02-24T04:15:08.552Z,52.79
2019-02-24T04:16:08.541Z,52.89
2019-02-24T04:17:08.535Z,52.89
2019-02-24T04:18:08.559Z,52.48
2019-02-24T04:19:08.512Z,53.20
2019-02-24T04:20:08.496Z,52.27
2019-02-24T04:21:08.485Z,52.37
2019-02-24T04:22:08.516Z,53.72
2019-02-24T04:23:08.470Z,52.48
2019-02-24T04:24:08.454Z,53.00
2019-02-24T04:25:08.441Z,52.37
2019-02-24T04:26:08.438Z,52.37
2019-02-24T04:27:08.420Z,52.37
2019-02-24T04:28:08.454Z,52.89
2019-02-24T04:29:08.397Z,53.61
2019-02-24T04:30:08.389Z,52.69
2019-02-24T04:31:08.374Z,52.79
2019-02-24T04:32:08.366Z,53.44
2019-02-24T04:33:08.355Z,52.89
2019-02-24T04:34:08.382Z,53.92
2019-02-24T04:35:08.374Z,54.06
2019-02-24T04:36:08.328Z,54.24
2019-02-24T04:37:08.310Z,53.92
2019-02-24T04:38:08.299Z,53.96
2019-02-24T04:39:08.330Z,54.55
2019-02-24T04:40:08.277Z,54.58
2019-02-24T04:41:08.270Z,54.89
2019-02-24T04:42:08.295Z,54.99
2019-02-24T04:43:08.244Z,55.51
2019-02-24T04:44:08.269Z,55.51
2019-02-24T04:45:08.269Z,55.62
2019-02-24T04:46:08.212Z,56.24
2019-02-24T04:47:08.259Z,55.72
2019-02-24T04:48:08.188Z,55.82
2019-02-24T04:49:08.181Z,55.82
2019-02-24T04:50:08.169Z,56.45
2019-02-24T04:51:08.199Z,56.68
2019-02-24T04:52:08.153Z,57.51
2019-02-24T04:53:08.140Z,55.64
2019-02-24T04:54:08.126Z,55.64
2019-02-24T04:55:08.115Z,56.37
2019-02-24T04:56:08.156Z,56.16
2019-02-24T04:57:08.091Z,57.32
2019-02-24T04:58:08.081Z,57.09
2019-02-24T04:59:08.735Z,57.04
2019-02-24T05:00:08.101Z,58.05
2019-02-24T05:01:08.049Z,57.53
2019-02-24T05:02:08.036Z,58.47
2019-02-24T05:03:08.026Z,57.77
2019-02-24T05:04:08.022Z,57.98
2019-02-24T05:05:08.004Z,58.39
2019-02-24T05:06:08.033Z,59.64
2019-02-24T05:07:08.022Z,59.01
2019-02-24T05:08:07.971Z,59.12
2019-02-24T05:09:07.959Z,58.29
2019-02-24T05:10:07.948Z,58.70
2019-02-24T05:11:07.979Z,58.11
2019-02-24T05:12:07.969Z,59.43
2019-02-24T05:13:07.913Z,58.70
2019-02-24T05:14:07.903Z,58.81
2019-02-24T05:15:07.943Z,59.22
2019-02-24T05:16:07.885Z,59.43
2019-02-24T05:17:07.870Z,60.57
2019-02-24T05:18:07.912Z,59.84
2019-02-24T05:19:07.848Z,60.57
2019-02-24T05:20:07.838Z,61.64
2019-02-24T05:21:07.834Z,62.26
2019-02-24T05:22:07.817Z,62.05
2019-02-24T05:23:07.807Z,62.68
2019-02-24T05:24:07.838Z,63.51
2019-02-24T05:25:07.833Z,62.71
2019-02-24T05:26:07.769Z,65.17
2019-02-24T05:27:07.779Z,64.58
2019-02-24T05:28:07.749Z,64.79
2019-02-24T05:29:07.737Z,64.27
2019-02-24T05:30:07.727Z,64.89
2019-02-24T05:31:07.762Z,66.03
2019-02-24T05:32:07.710Z,65.52
2019-02-24T05:33:07.705Z,66.27
2019-02-24T05:34:07.684Z,67.42
2019-02-24T05:35:07.724Z,67.21
2019-02-24T05:36:07.669Z,67.21
2019-02-24T05:37:07.651Z,68.15
2019-02-24T05:38:07.646Z,66.69
2019-02-24T05:39:07.628Z,67.21
2019-02-24T05:40:07.618Z,67.11
2019-02-24T05:41:07.652Z,66.59
2019-02-24T05:42:07.598Z,66.72
2019-02-24T05:43:07.585Z,67.03
2019-02-24T05:44:07.577Z,67.52
2019-02-24T05:45:07.562Z,67.14
2019-02-24T05:46:07.552Z,67.03
2019-02-24T05:47:07.591Z,67.76
2019-02-24T05:48:07.529Z,67.35
2019-02-24T05:49:07.521Z,68.25
2019-02-24T05:50:07.522Z,68.07
2019-02-24T05:51:07.497Z,67.86
2019-02-24T05:52:07.527Z,67.24
2019-02-24T05:53:07.473Z,67.55
2019-02-24T05:54:07.465Z,67.94
2019-02-24T05:55:07.453Z,67.35
2019-02-24T05:56:07.492Z,67.94
2019-02-24T05:57:07.435Z,68.38
2019-02-24T05:58:07.418Z,67.97
2019-02-24T05:59:07.410Z,67.24
2019-02-24T06:00:07.396Z,68.38
2019-02-24T06:01:07.396Z,67.86
2019-02-24T06:02:07.437Z,67.97
2019-02-24T06:03:07.365Z,68.49
2019-02-24T06:04:07.362Z,68.38
2019-02-24T06:05:07.383Z,67.79
2019-02-24T06:06:07.331Z,68.52
2019-02-24T06:07:07.372Z,68.10
2019-02-24T06:08:07.317Z,69.12
2019-02-24T06:09:07.310Z,68.32
2019-02-24T06:10:07.329Z,67.48
2019-02-24T06:11:07.277Z,67.79
2019-02-24T06:12:07.309Z,67.69
2019-02-24T06:13:07.265Z,68.42
2019-02-24T06:14:07.246Z,68.32
2019-02-24T06:15:07.238Z,67.69
2019-02-24T06:16:07.221Z,67.69
2019-02-24T06:17:07.209Z,67.69
2019-02-24T06:18:07.244Z,67.48
2019-02-24T06:19:07.187Z,68.42
2019-02-24T06:20:07.187Z,68.32
2019-02-24T06:21:07.218Z,68.00
2019-02-24T06:22:07.155Z,67.90
2019-02-24T06:23:07.147Z,67.69
2019-02-24T06:24:07.138Z,68.32
2019-02-24T06:25:07.123Z,67.90
2019-02-24T06:26:07.115Z,68.21
2019-02-24T06:27:07.147Z,69.46
2019-02-24T06:28:07.090Z,69.46
2019-02-24T06:29:07.093Z,68.73
2019-02-24T06:30:07.070Z,69.25
2019-02-24T06:31:07.058Z,69.25
2019-02-24T06:32:07.048Z,69.46
2019-02-24T06:33:07.078Z,68.94
2019-02-24T06:34:07.024Z,69.04
2019-02-24T06:35:07.065Z,68.73
2019-02-24T06:36:07.002Z,69.67
2019-02-24T06:37:07.041Z,69.56
2019-02-24T06:38:06.979Z,69.04
2019-02-24T06:39:06.970Z,69.04
2019-02-24T06:40:06.959Z,69.04
2019-02-24T06:41:06.946Z,69.46
2019-02-24T06:42:06.933Z,69.15
2019-02-24T06:43:07.007Z,69.77
2019-02-24T06:44:06.912Z,70.09
2019-02-24T06:45:06.948Z,69.56
2019-02-24T06:46:06.896Z,70.29
2019-02-24T06:47:06.929Z,69.98
2019-02-24T06:48:06.873Z,69.98
2019-02-24T06:49:06.863Z,70.09
2019-02-24T06:50:06.847Z,69.87
2019-02-24T06:51:06.837Z,69.56
2019-02-24T06:52:06.824Z,69.15
2019-02-24T06:53:06.855Z,70.40
2019-02-24T06:54:06.801Z,70.61
2019-02-24T06:55:06.792Z,70.68
2019-02-24T06:56:06.822Z,70.36
2019-02-24T06:57:06.775Z,69.46
2019-02-24T06:58:06.761Z,69.25
2019-02-24T06:59:06.798Z,69.15
2019-02-24T07:00:13.795Z,70.19
2019-02-24T07:01:07.725Z,70.29
2019-02-24T07:02:06.718Z,69.46
2019-02-24T07:03:06.704Z,70.29
2019-02-24T07:04:06.693Z,69.15
2019-02-24T07:05:06.735Z,70.40
2019-02-24T07:06:06.668Z,69.53
2019-02-24T07:07:06.657Z,69.74
2019-02-24T07:08:06.648Z,69.01
2019-02-24T07:09:06.640Z,68.18
2019-02-24T07:10:06.626Z,67.55
2019-02-24T07:11:06.658Z,68.04
2019-02-24T07:12:06.650Z,67.03
2019-02-24T07:13:06.595Z,66.20
2019-02-24T07:14:06.583Z,66.30
2019-02-24T07:15:06.574Z,66.06
2019-02-24T07:16:06.568Z,65.44
2019-02-24T07:17:06.550Z,65.26
2019-02-24T07:18:06.579Z,64.85
2019-02-24T07:19:06.532Z,64.92
2019-02-24T07:20:06.520Z,65.23
2019-02-24T07:21:06.506Z,64.92
2019-02-24T07:22:06.501Z,65.31
2019-02-24T07:23:06.523Z,64.79
2019-02-24T07:24:06.479Z,64.69
2019-02-24T07:25:06.459Z,64.17
2019-02-24T07:26:06.453Z,64.69
2019-02-24T07:27:06.440Z,64.55
2019-02-24T07:28:06.518Z,64.97
2019-02-24T07:29:06.418Z,64.24
2019-02-24T07:30:06.420Z,64.14
2019-02-24T07:31:06.396Z,64.14
2019-02-24T07:32:06.384Z,63.07
2019-02-24T07:33:06.388Z,62.78
2019-02-24T07:34:06.406Z,62.02
2019-02-24T07:35:06.353Z,62.34
2019-02-24T07:36:06.342Z,62.76
2019-02-24T07:37:12.836Z,62.45
2019-02-24T07:38:07.317Z,63.07
2019-02-24T07:39:06.307Z,63.17
2019-02-24T07:40:06.338Z,63.17
2019-02-24T07:41:06.284Z,63.07
2019-02-24T07:42:06.273Z,62.02
2019-02-24T07:43:06.295Z,62.52
2019-02-24T07:44:06.257Z,62.62
2019-02-24T07:45:06.244Z,62.28
2019-02-24T07:46:06.297Z,60.44
2019-02-24T07:47:06.223Z,59.82
2019-02-24T07:48:06.210Z,60.21
2019-02-24T07:49:06.203Z,60.10
2019-02-24T07:50:06.188Z,57.90
2019-02-24T07:51:06.241Z,57.38
2019-02-24T07:52:06.177Z,57.48
2019-02-24T07:53:06.153Z,57.76
2019-02-24T07:54:06.148Z,56.10
2019-02-24T07:55:06.134Z,53.90
2019-02-24T07:56:06.199Z,55.15
2019-02-24T07:57:06.113Z,54.21
2019-02-24T07:58:06.101Z,54.63
2019-02-24T07:59:06.092Z,55.46
2019-02-24T08:00:06.154Z,55.04
2019-02-24T08:01:06.075Z,54.00
2019-02-24T08:02:06.059Z,54.08
2019-02-24T08:03:06.113Z,53.88
2019-02-24T08:04:06.039Z,53.54
2019-02-24T08:05:06.023Z,52.09
2019-02-24T08:06:06.073Z,52.51
2019-02-24T08:07:06.002Z,52.20
2019-02-24T08:08:05.989Z,51.99
2019-02-24T08:09:06.053Z,51.37
2019-02-24T08:10:05.969Z,51.34
2019-02-24T08:11:06.027Z,51.45
2019-02-24T08:12:06.012Z,51.65
2019-02-24T08:13:05.936Z,51.86
2019-02-24T08:14:05.926Z,51.03
2019-02-24T08:15:05.919Z,50.41
2019-02-24T08:16:05.911Z,50.41
2019-02-24T08:17:05.963Z,51.11
2019-02-24T08:18:05.883Z,49.77
2019-02-24T08:19:05.870Z,49.90
2019-02-24T08:20:05.864Z,49.66
2019-02-24T08:21:05.996Z,48.22
2019-02-24T08:22:05.842Z,48.94
2019-02-24T08:23:05.829Z,48.53
2019-02-24T08:24:05.870Z,47.28
2019-02-24T08:25:05.816Z,48.40
2019-02-24T08:26:05.816Z,47.99
2019-02-24T08:27:05.784Z,46.54
2019-02-24T08:28:05.771Z,47.03
2019-02-24T08:29:05.765Z,46.75
2019-02-24T08:30:05.791Z,46.72
2019-02-24T08:31:05.753Z,46.62
2019-02-24T08:32:05.728Z,47.34
2019-02-24T08:33:05.715Z,47.45
2019-02-24T08:34:05.752Z,46.62
2019-02-24T08:35:05.694Z,46.21
2019-02-24T08:36:05.689Z,44.96
2019-02-24T08:37:05.681Z,45.59
2019-02-24T08:38:05.661Z,44.32
2019-02-24T08:39:05.695Z,44.32
2019-02-24T08:40:05.657Z,44.74
2019-02-24T08:41:05.669Z,44.32
2019-02-24T08:42:05.663Z,44.43
2019-02-24T08:43:05.606Z,43.79
2019-02-24T08:44:05.640Z,44.72
2019-02-24T08:45:05.587Z,43.89
2019-02-24T08:46:05.572Z,44.10
2019-02-24T08:47:05.571Z,44.10
2019-02-24T08:48:05.553Z,44.41
2019-02-24T08:49:05.547Z,43.99
2019-02-24T08:50:05.575Z,44.41
2019-02-24T08:51:05.519Z,44.08
2019-02-24T08:52:05.508Z,43.48
2019-02-24T08:53:05.539Z,43.79
2019-02-24T08:54:05.483Z,42.84
2019-02-24T08:55:05.517Z,42.65
2019-02-24T08:56:05.465Z,43.25
2019-02-24T08:57:05.514Z,43.98
2019-02-24T08:58:05.447Z,44.18
2019-02-24T08:59:05.429Z,42.74
2019-02-24T09:00:05.445Z,42.43
2019-02-24T09:01:05.408Z,42.32
2019-02-24T09:02:05.399Z,41.69
2019-02-24T09:03:05.432Z,42.10
2019-02-24T09:04:05.429Z,41.58
2019-02-24T09:05:05.406Z,40.86
2019-02-24T09:06:05.356Z,40.75
2019-02-24T09:07:05.350Z,41.48
2019-02-24T09:08:05.331Z,40.55
2019-02-24T09:09:05.323Z,41.99
2019-02-24T09:10:05.352Z,40.53
2019-02-24T09:11:05.302Z,41.05
2019-02-24T09:12:05.287Z,40.82
2019-02-24T09:13:05.276Z,40.72
2019-02-24T09:14:05.275Z,40.72
2019-02-24T09:15:05.297Z,40.61
2019-02-24T09:16:05.245Z,38.65
2019-02-24T09:17:05.233Z,39.59
2019-02-24T09:18:05.227Z,38.95
2019-02-24T09:19:05.209Z,39.67
2019-02-24T09:20:05.241Z,38.84
2019-02-24T09:21:05.188Z,38.74
2019-02-24T09:22:05.176Z,38.64
2019-02-24T09:23:05.169Z,39.05
2019-02-24T09:24:05.156Z,38.23
2019-02-24T09:25:05.181Z,39.05
2019-02-24T09:26:05.137Z,38.82
2019-02-24T09:27:05.122Z,38.52
2019-02-24T09:28:05.114Z,37.88
2019-02-24T09:29:05.148Z,37.37
2019-02-24T09:30:05.086Z,37.88
2019-02-24T09:31:05.074Z,37.47
2019-02-24T09:32:05.062Z,39.22
2019-02-24T09:33:05.056Z,37.88
2019-02-24T09:34:05.094Z,36.96
2019-02-24T09:35:05.035Z,37.78
2019-02-24T09:36:05.020Z,37.06
2019-02-24T09:37:05.014Z,37.26
2019-02-24T09:38:04.999Z,36.44
2019-02-24T09:39:04.987Z,36.11
2019-02-24T09:40:05.024Z,35.91
2019-02-24T09:41:04.987Z,35.62
2019-02-24T09:42:04.959Z,35.31
2019-02-24T09:43:04.941Z,35.60
2019-02-24T09:44:04.929Z,35.81
2019-02-24T09:45:04.962Z,35.60
2019-02-24T09:46:04.916Z,35.17
2019-02-24T09:47:04.896Z,35.17
2019-02-24T09:48:04.887Z,35.38
2019-02-24T09:49:04.918Z,34.86
2019-02-24T09:50:04.863Z,34.56
2019-02-24T09:51:04.850Z,34.97
2019-02-24T09:52:04.893Z,34.75
2019-02-24T09:53:04.828Z,34.76
2019-02-24T09:54:04.845Z,34.75
2019-02-24T09:55:04.811Z,34.95
2019-02-24T09:56:04.817Z,33.81
2019-02-24T09:57:04.793Z,33.70
2019-02-24T09:58:04.819Z,32.98
2019-02-24T09:59:04.769Z,33.70
2019-02-24T10:00:04.751Z,34.01
2019-02-24T10:01:10.610Z,32.98
2019-02-24T10:02:05.728Z,33.70
2019-02-24T10:03:04.719Z,32.97
2019-02-24T10:04:04.789Z,33.29
2019-02-24T10:05:04.695Z,31.75
2019-02-24T10:06:04.686Z,33.48
2019-02-24T10:07:04.677Z,33.07
2019-02-24T10:08:04.702Z,31.94
2019-02-24T10:09:04.652Z,32.13
2019-02-24T10:10:04.640Z,31.31
2019-02-24T10:11:04.674Z,31.31
2019-02-24T10:12:04.617Z,31.93
2019-02-24T10:13:04.677Z,31.21
2019-02-24T10:14:04.598Z,30.88
2019-02-24T10:15:04.586Z,31.93
2019-02-24T10:16:04.571Z,32.03
2019-02-24T10:17:04.560Z,31.31
2019-02-24T10:18:04.560Z,31.09
2019-02-24T10:19:04.578Z,31.29
2019-02-24T10:20:04.529Z,31.50
2019-02-24T10:21:04.565Z,31.20
2019-02-24T10:22:04.507Z,31.28
2019-02-24T10:23:04.501Z,31.40
2019-02-24T10:24:04.485Z,31.81
2019-02-24T10:25:05.956Z,31.28
2019-02-24T10:26:04.509Z,30.77
2019-02-24T10:27:04.453Z,30.98
2019-02-24T10:28:04.501Z,29.85
2019-02-24T10:29:04.425Z,31.07
2019-02-24T10:30:04.485Z,29.85
2019-02-24T10:31:04.402Z,29.52
2019-02-24T10:32:04.399Z,29.22
2019-02-24T10:33:04.396Z,28.91
2019-02-24T10:34:04.443Z,29.63
2019-02-24T10:35:04.419Z,28.70
2019-02-24T10:36:04.346Z,29.42
2019-02-24T10:37:04.342Z,29.22
2019-02-24T10:38:04.327Z,29.11
2019-02-24T10:39:04.322Z,29.11
2019-02-24T10:40:04.309Z,29.11
2019-02-24T10:41:04.343Z,29.00
2019-02-24T10:42:04.286Z,29.41
2019-02-24T10:43:04.305Z,28.27
2019-02-24T10:44:04.261Z,27.86
2019-02-24T10:45:04.250Z,27.34
2019-02-24T10:46:04.239Z,28.37
2019-02-24T10:47:04.274Z,27.03
2019-02-24T10:48:13.553Z,26.62
2019-02-24T10:49:05.203Z,27.12
2019-02-24T10:50:04.194Z,27.54
2019-02-24T10:51:04.229Z,27.12
2019-02-24T10:52:04.177Z,27.54
2019-02-24T10:53:04.204Z,26.21
2019-02-24T10:54:04.146Z,27.54
2019-02-24T10:55:04.135Z,26.92
2019-02-24T10:56:04.146Z,28.46
2019-02-24T10:57:04.113Z,26.81
2019-02-24T10:58:04.170Z,26.20
2019-02-24T10:59:04.097Z,25.68
2019-02-24T11:00:04.076Z,25.26
2019-02-24T11:01:04.067Z,26.28
2019-02-24T11:02:04.101Z,26.28
2019-02-24T11:03:04.045Z,23.93
2019-02-24T11:04:04.038Z,25.35
2019-02-24T11:05:04.022Z,24.13
2019-02-24T11:06:04.017Z,24.74
2019-02-24T11:07:04.044Z,24.84
2019-02-24T11:08:03.994Z,23.82
2019-02-24T11:09:03.975Z,23.82
2019-02-24T11:10:04.121Z,25.04
2019-02-24T11:11:03.958Z,24.84
2019-02-24T11:12:03.942Z,24.43
2019-02-24T11:13:03.973Z,25.35
2019-02-24T11:14:03.921Z,24.42
2019-02-24T11:15:03.910Z,22.48
2019-02-24T11:16:04.062Z,23.91
2019-02-24T11:17:03.926Z,23.71
2019-02-24T11:18:03.876Z,22.27
2019-02-24T11:19:03.865Z,23.39
2019-02-24T11:20:03.861Z,22.36
2019-02-24T11:21:03.891Z,22.25
2019-02-24T11:22:03.879Z,21.75
2019-02-24T11:23:03.816Z,22.15
2019-02-24T11:24:03.804Z,22.25
2019-02-24T11:25:03.798Z,22.15
2019-02-24T11:26:03.859Z,21.74
2019-02-24T11:27:03.780Z,22.86
2019-02-24T11:28:03.759Z,22.05
2019-02-24T11:29:03.746Z,22.14
2019-02-24T11:30:03.745Z,22.25
2019-02-24T11:31:03.780Z,22.25
2019-02-24T11:32:03.718Z,22.25
2019-02-24T11:33:03.714Z,22.04
2019-02-24T11:34:03.692Z,21.94
2019-02-24T11:35:03.686Z,22.55
2019-02-24T11:36:03.745Z,23.97
2019-02-24T11:37:03.657Z,23.47
2019-02-24T11:38:03.717Z,25.20
2019-02-24T11:39:03.646Z,23.26
2019-02-24T11:40:03.687Z,23.47
2019-02-24T11:41:03.614Z,23.77
2019-02-24T11:42:03.606Z,24.08
2019-02-24T11:43:03.659Z,24.17
2019-02-24T11:44:03.583Z,23.15
2019-02-24T11:45:03.565Z,24.17
2019-02-24T11:46:03.619Z,23.44
2019-02-24T11:47:04.085Z,22.74
2019-02-24T11:48:03.594Z,22.32
2019-02-24T11:49:03.531Z,23.24
2019-02-24T11:50:03.510Z,23.14
2019-02-24T11:51:03.501Z,23.43
2019-02-24T11:52:04.146Z,23.23
2019-02-24T11:53:03.492Z,23.33
2019-02-24T11:54:03.534Z,23.23
2019-02-24T11:55:03.452Z,23.84
2019-02-24T11:56:03.454Z,24.15
2019-02-24T11:57:03.430Z,23.52
2019-02-24T11:58:03.419Z,23.22
2019-02-24T11:59:03.414Z,23.52
2019-02-24T12:00:03.467Z,24.13
2019-02-24T12:01:03.389Z,23.93
2019-02-24T12:02:03.424Z,25.05
2019-02-24T12:03:03.367Z,24.84
2019-02-24T12:04:03.350Z,24.95
2019-02-24T12:05:03.349Z,25.04
2019-02-24T12:06:03.328Z,24.74
2019-02-24T12:07:03.361Z,25.55
2019-02-24T12:08:03.311Z,24.74
2019-02-24T12:09:05.411Z,25.75
2019-02-24T12:10:03.289Z,25.45
2019-02-24T12:11:03.277Z,25.65
2019-02-24T12:12:03.262Z,26.06
2019-02-24T12:13:03.252Z,25.74
2019-02-24T12:14:03.308Z,25.34
2019-02-24T12:15:03.230Z,24.93
2019-02-24T12:16:03.216Z,25.23
2019-02-24T12:17:03.212Z,25.22
2019-02-24T12:18:03.196Z,25.34
2019-02-24T12:19:03.196Z,24.73
2019-02-24T12:20:03.228Z,25.83
2019-02-24T12:21:03.169Z,25.32
2019-02-24T12:22:03.156Z,24.91
2019-02-24T12:23:03.140Z,25.43
2019-02-24T12:24:03.128Z,24.61
2019-02-24T12:25:03.116Z,25.02
2019-02-24T12:26:03.143Z,25.22
2019-02-24T12:27:03.121Z,24.82
2019-02-24T12:28:03.084Z,25.22
2019-02-24T12:29:03.136Z,24.71
2019-02-24T12:30:03.063Z,24.00
2019-02-24T12:31:03.047Z,25.01
2019-02-24T12:32:03.035Z,24.09
2019-02-24T12:33:03.026Z,24.29
2019-02-24T12:34:03.025Z,24.29
2019-02-24T12:35:03.054Z,25.21
2019-02-24T12:36:02.994Z,24.79
2019-02-24T12:37:02.988Z,25.30
2019-02-24T12:38:03.013Z,24.69
2019-02-24T12:39:02.959Z,24.18
2019-02-24T12:40:02.948Z,23.88
2019-02-24T12:41:02.946Z,23.76
2019-02-24T12:42:02.926Z,24.16
2019-02-24T12:43:02.916Z,23.55
2019-02-24T12:44:02.969Z,22.64
2019-02-24T12:45:02.891Z,22.53
2019-02-24T12:46:02.883Z,22.43
2019-02-24T12:47:02.873Z,22.43
2019-02-24T12:48:02.901Z,22.74
2019-02-24T12:49:02.847Z,23.75
2019-02-24T12:50:03.771Z,22.33
2019-02-24T12:51:02.827Z,21.61
2019-02-24T12:52:02.818Z,22.23